Fritztown, Pennsylvania
Current Conditions -  °F | °C
As of 4:54 PM on Friday 31 Oct 2014 (Local Time) from KRDG Reporting Station
Broken Clouds Broken Clouds  
Wind Chill: 54°   Ceiling: 6000
Heat Index: 54°   Visibility: 10mi
Dew Point: 31°   Wind: 6mph
Humidity: 41%   Direction: 60°ENE
Pressure: 29.86"   Gusts: NA
Location:  40.3199°N, 76.0339°W
Report Text: KRDG 312054Z 06005KT 10SM BKN060 12/M01 A2986 RMK AO2 SLP117 T01221006 56018
Loading
Personal Weather Stations






























Interactive Weather Map
Tropical Storm Tracking
New forecast layout! Learn more

10-Day Weather Forecast

Advertisements
Track Severe Weather on mobile